Terminal Aerodrome Forecast
Issued by NWS Cleveland, OH

Home | Current Version | Previous Version | Graphics & Text | Print | Product List | Glossary Off
Versions: 1 2 3 4 5 6 7 8 9 10 11 12 13 14 15 16 17 18 19

000
FTUS41 KCLE 271839 AAA
TAFTOL
TAF AMD
KTOL 271839Z 2719/2818 27020G40KT 1SM TSRA BKN010CB OVC035
      TEMPO 2719/2720 27015G25KT 4SM -TSRA BKN015CB OVC045
     FM272000 17005KT P6SM BKN050 BKN100
     FM280700 23003KT 4SM BR VCSH BKN015
     FM281300 27008KT P6SM BKN025=

USA.gov is the U.S. government's official web portal to all federal, state and local government web resources and services.